CheckWX is a tool to help pilots better visualize weather data.  It is not intended as a substitute for an official pre-flight weather briefing.

21:04:18 UTC

DAAD METAR
Bou Saada Airport
Algeria
Current

3 hours ago

DAAD 231800Z 34016KT CAVOK 16/M01 Q1022
Observed
Feb-23 @ 18:00 UTC
Wind
  • 340° at 16 KTS
Visibility
10,000+ meters
Flight Rules
VFR
Cloud Levels
  • Clear skies
Temperature
16°C / 61°F
Dewpoint
-1°C / 30°F
Humidity
31%
Altimeter
30.18" Hg
Pressure
1021.92 hPa
Previous

4 hours ago

DAAD 231700Z 35016KT CAVOK 17/M01 Q1023
Observed
Feb-23 @ 17:00 UTC
Wind
  • 350° at 16 KTS
Visibility
10,000+ meters
Flight Rules
VFR
Cloud Levels
  • Clear skies
Temperature
17°C / 63°F
Dewpoint
-1°C / 30°F
Humidity
30%
Altimeter
30.21" Hg
Pressure
1022.92 hPa
Previous

5 hours ago

DAAD 231600Z 01012KT CAVOK 18/M02 Q1023
Observed
Feb-23 @ 16:00 UTC
Wind
  • 010° at 12 KTS
Visibility
10,000+ meters
Flight Rules
VFR
Cloud Levels
  • Clear skies
Temperature
18°C / 64°F
Dewpoint
-2°C / 28°F
Humidity
26%
Altimeter
30.21" Hg
Pressure
1022.92 hPa